Flight Track Log - Related Links

Times and Time Zones

All times are in EDT time to prevent confusion due to time zone crossing. See the RPA3321 flight status page for this flight to view local times or setup timezone preferences in your user account.

Time Position Orientation Groundspeed Altitude Reporting Facility
EDT Latitude Longitude Course Direction KTS MPH feet Rate Location/Type
Thu 07:00:45 AM 42.7653 -73.8061 135° Southeast 156 180 1,600  Level Boston Center
Thu 07:01:09 AM 42.7819 -73.8092 352° North 156 180 2,200 2,468 Climbing Boston Center
Thu 07:02:49 AM 42.8642 -73.9075 319° Northwest 249 287 6,700 2,870 Climbing Boston Center
Thu 07:03:00 AM 42.5258 -74.0002 171° South  Level Estimated
Thu 07:03:50 AM 42.9069 -73.9681 314° West 249 287 9,900  Level Boston Center
Thu 07:04:00 AM 42.4513 -74.0660 172° South  Level Estimated
Thu 07:04:52 AM 42.9178 -74.0844 277° West 258 297 12,300  Level Boston Center
Thu 07:05:00 AM 42.3884 -73.9809 135° Southeast  Level FlightAware Approximate
Thu 07:05:50 AM 42.9103 -74.1836 264° West 288 331 14,900  Level Boston Center
Thu 07:06:50 AM 42.8119 -74.2089 191° South 269 310 17,200 2,164 Climbing Boston Center
Thu 07:07:52 AM 42.7147 -74.1611 160° South 329 379 19,300 2,050 Climbing Boston Center
Thu 07:08:50 AM 42.6153 -74.1047 157° South 354 407 21,300 1,815 Climbing Boston Center
Thu 07:09:51 AM 42.5161 -74.0428 155° Southeast 369 425 22,900 1,525 Climbing Boston Center
Thu 07:10:52 AM 42.4128 -73.9811 156° South 396 456 24,400 1,537 Climbing Boston Center
Thu 07:11:52 AM 42.3053 -73.9194 157° South 409 471 26,000 821 Climbing Boston Center
Thu 07:12:49 AM 42.1936 -73.8525 156° South 429 494 26,000  Level Boston Center
Thu 07:13:50 AM 42.0753 -73.8078 164° South 435 501 26,000  Level Boston Center
Thu 07:14:51 AM 41.9669 -73.8139 182° South 440 506 26,000  Level Boston Center
Thu 07:15:49 AM 41.8581 -73.8589 197° South 425 489 26,000  Level Boston Center
Thu 07:16:51 AM 41.7447 -73.9147 200° South 406 467 26,000  Level Boston Center
Thu 07:19:00 AM 41.5144 -74.0319 201° Southwest 406 467 26,000  Level New York Center
Thu 07:20:00 AM 41.4064 -74.0903 202° Southwest 406 467 26,000  Level New York Center
Thu 07:21:00 AM 41.3008 -74.1431 201° Southwest 411 473 26,000  Level New York Center
Thu 07:22:00 AM 41.2142 -74.1883 201° Southwest 416 479 26,000  Level New York Center
Thu 07:23:00 AM 41.0917 -74.2483 200° South 422 486 26,000  Level New York Center
Thu 07:24:00 AM 40.9858 -74.3033 201° Southwest 422 486 26,000  Level New York Center
Thu 07:25:00 AM 40.8803 -74.3553 200° South 416 479 26,000  Level New York Center
Thu 07:26:00 AM 40.7761 -74.4211 206° Southwest 411 473 26,000  Level New York Center
Thu 07:27:00 AM 40.7081 -74.5325 231° Southwest 401 461 26,000  Level New York Center
Thu 07:28:00 AM 40.6394 -74.6492 232° Southwest 396 456 26,000  Level New York Center
Thu 07:29:00 AM 40.5692 -74.7625 231° Southwest 403 464 26,000 -200 Level New York Center
Thu 07:30:00 AM 40.4925 -74.8700 227° Southwest 410 472 25,600 -800 Descending New York Center
Thu 07:31:00 AM 40.4200 -74.9719 227° Southwest 404 465 24,400 -1,200 Descending New York Center
Thu 07:32:00 AM 40.3475 -75.0764 228° Southwest 393 452 23,200 -1,350 Descending New York Center
Thu 07:33:00 AM 40.2706 -75.1886 228° Southwest 393 452 21,700 -1,350 Descending New York Center
Thu 07:34:00 AM 40.2000 -75.2875 227° Southwest 388 447 20,500 -850 Descending New York Center
Thu 07:35:00 AM 40.1275 -75.3858 226° Southwest 383 441 20,000 -250 Descending New York Center
Thu 07:36:00 AM 40.0547 -75.4869 227° Southwest 383 441 20,000  Level New York Center
Thu 07:37:00 AM 39.9839 -75.5850 227° Southwest 383 441 20,000  Level New York Center
Thu 07:38:00 AM 39.9131 -75.6858 228° Southwest 383 441 20,000  Level New York Center
Thu 07:39:00 AM 39.8542 -75.8006 236° Southwest 383 441 20,000  Level New York Center
Thu 07:40:00 AM 39.7869 -75.9039 230° Southwest 383 441 20,000 -100 Level New York Center
Thu 07:41:00 AM 39.7200 -76.0042 229° Southwest 383 441 19,800 -1,100 Descending New York Center
Thu 07:42:00 AM 39.6550 -76.1047 230° Southwest 378 435 17,800 -1,850 Descending New York Center
Thu 07:43:00 AM 39.5947 -76.1969 230° Southwest 378 435 16,100 -1,895 Descending New York Center
Thu 07:43:35 AM 39.5500 -76.2667 230° Southwest 358 412 14,800 -1,955 Descending Potomac TRACON
Thu 07:44:29 AM 39.5000 -76.3500 232° Southwest 346 398 13,200 -1,556 Descending Potomac TRACON
Thu 07:45:23 AM 39.4333 -76.4333 224° Southwest 335 386 12,000 -600 Descending Potomac TRACON
Thu 07:46:29 AM 39.3500 -76.5000 212° Southwest 336 387 12,000  Level Potomac TRACON
Thu 07:47:29 AM 39.2667 -76.5667 212° Southwest 339 390 12,000 -667 Level Potomac TRACON
Thu 07:48:17 AM 39.2167 -76.6333 226° Southwest 320 368 10,800 -1,043 Descending Potomac TRACON
Thu 07:49:24 AM 39.1500 -76.7000 218° Southwest 278 320 10,000 -397 Descending Potomac TRACON
Thu 07:50:18 AM 39.0833 -76.7500 210° Southwest 278 320 10,000 -778 Level Potomac TRACON
Thu 07:51:12 AM 39.0333 -76.8167 226° Southwest 275 316 8,600 -1,737 Descending Potomac TRACON
Thu 07:52:12 AM 38.9833 -76.8833 226° Southwest 270 311 6,700 -1,368 Descending Potomac TRACON
Thu 07:53:06 AM 38.9333 -76.9333 218° Southwest 265 305 6,000 -350 Descending Potomac TRACON
Thu 07:54:12 AM 38.8500 -76.9500 189° South 281 323 6,000 -737 Level Potomac TRACON
Thu 07:55:00 AM 38.8000 -76.9500 180° South 275 316 4,600 -1,611 Descending Potomac TRACON
Thu 07:56:00 AM 38.7167 -76.9667 189° South 269 310 3,100 -1,000 Descending Potomac TRACON
Thu 07:56:54 AM 38.7333 -77.0167 293° West 216 249 2,700 -1,000 Descending Potomac TRACON
Thu 07:58:00 AM 38.7833 -77.0333 345° North 154 177 1,100 -1,050 Descending Potomac TRACON
Thu 07:58:54 AM 38.8167 -77.0333 360° North 117 135 600 -556 Descending Potomac TRACON

Login

Don't have an account? Register now (free) for customized features, flight alerts, and more!